createdAt,value
2016-10-18T00:00:50.596Z,0
2016-10-18T00:01:49.307Z,0
2016-10-18T00:02:50.353Z,0
2016-10-18T00:03:49.280Z,0
2016-10-18T00:04:49.984Z,0
2016-10-18T00:05:49.456Z,0
2016-10-18T00:06:53.452Z,0
2016-10-18T00:07:49.296Z,0
2016-10-18T00:08:51.007Z,0
2016-10-18T00:09:49.233Z,0
2016-10-18T00:10:49.159Z,0
2016-10-18T00:11:50.029Z,0
2016-10-18T00:12:51.790Z,0
2016-10-18T00:13:49.981Z,0
2016-10-18T00:14:52.899Z,0
2016-10-18T00:15:50.492Z,0
2016-10-18T00:16:48.728Z,0
2016-10-18T00:17:51.063Z,0
2016-10-18T00:18:50.535Z,0
2016-10-18T00:19:49.395Z,0
2016-10-18T00:20:48.770Z,0
2016-10-18T00:21:50.212Z,0
2016-10-18T00:22:51.340Z,0
2016-10-18T00:23:50.689Z,0
2016-10-18T00:24:49.342Z,0
2016-10-18T00:25:50.320Z,0
2016-10-18T00:26:50.542Z,0
2016-10-18T00:27:49.628Z,0
2016-10-18T00:28:52.136Z,0
2016-10-18T00:29:51.715Z,0
2016-10-18T00:30:52.083Z,0
2016-10-18T00:31:50.366Z,0
2016-10-18T00:32:50.518Z,0
2016-10-18T00:33:49.394Z,0
2016-10-18T00:34:50.296Z,0
2016-10-18T00:35:48.950Z,0
2016-10-18T00:36:51.023Z,0
2016-10-18T00:37:51.438Z,0
2016-10-18T00:38:50.833Z,0
2016-10-18T00:39:51.414Z,0
2016-10-18T00:40:51.437Z,0
2016-10-18T00:41:49.420Z,0
2016-10-18T00:42:49.500Z,0
2016-10-18T00:43:52.530Z,0
2016-10-18T00:44:53.268Z,0
2016-10-18T00:45:51.452Z,0
2016-10-18T00:46:51.833Z,0
2016-10-18T00:47:50.468Z,0
2016-10-18T00:48:52.303Z,0
2016-10-18T00:49:51.972Z,0
2016-10-18T00:50:51.294Z,0
2016-10-18T00:51:51.051Z,0
2016-10-18T00:52:50.308Z,0
2016-10-18T00:53:53.568Z,0
2016-10-18T00:54:50.133Z,0
2016-10-18T00:55:50.505Z,0
2016-10-18T00:56:51.312Z,0
2016-10-18T00:57:51.203Z,0
2016-10-18T00:58:53.279Z,0
2016-10-18T00:59:50.314Z,0
2016-10-18T01:00:50.953Z,0
2016-10-18T01:01:51.091Z,0
2016-10-18T01:02:51.386Z,0
2016-10-18T01:03:51.322Z,0
2016-10-18T01:04:54.181Z,0
2016-10-18T01:05:51.243Z,0
2016-10-18T01:06:52.559Z,0
2016-10-18T01:07:53.279Z,0
2016-10-18T01:08:50.986Z,0
2016-10-18T01:09:50.263Z,0
2016-10-18T01:10:50.762Z,0
2016-10-18T01:11:52.147Z,0
2016-10-18T01:12:51.729Z,0
2016-10-18T01:13:51.271Z,0
2016-10-18T01:14:52.889Z,0
2016-10-18T01:15:52.811Z,0
2016-10-18T01:16:51.433Z,0
2016-10-18T01:17:51.775Z,0
2016-10-18T01:18:51.445Z,0
2016-10-18T01:19:51.209Z,0
2016-10-18T01:20:51.408Z,0
2016-10-18T01:21:51.220Z,0
2016-10-18T01:22:50.401Z,0
2016-10-18T01:23:51.023Z,0
2016-10-18T01:24:53.665Z,0
2016-10-18T01:25:52.042Z,0
2016-10-18T01:26:54.036Z,0
2016-10-18T01:27:55.243Z,0
2016-10-18T01:28:51.132Z,0
2016-10-18T01:29:51.954Z,0
2016-10-18T01:30:51.577Z,0
2016-10-18T01:31:51.526Z,0
2016-10-18T01:32:54.265Z,0
2016-10-18T01:33:51.601Z,0
2016-10-18T01:34:51.803Z,0
2016-10-18T01:35:51.421Z,0
2016-10-18T01:36:51.256Z,0
2016-10-18T01:37:51.968Z,0
2016-10-18T01:38:51.820Z,0
2016-10-18T01:39:53.090Z,0
2016-10-18T01:40:52.727Z,0
2016-10-18T01:41:51.717Z,0
2016-10-18T01:42:51.325Z,0
2016-10-18T01:43:51.975Z,0
2016-10-18T01:44:51.701Z,0
2016-10-18T01:45:53.946Z,0
2016-10-18T01:46:52.341Z,0
2016-10-18T01:47:52.891Z,0
2016-10-18T01:48:51.557Z,0
2016-10-18T01:49:50.957Z,0
2016-10-18T01:50:51.388Z,0
2016-10-18T01:51:53.672Z,0
2016-10-18T01:52:53.062Z,0
2016-10-18T01:53:52.363Z,0
2016-10-18T01:54:55.059Z,0
2016-10-18T01:55:52.593Z,0
2016-10-18T01:56:53.365Z,0
2016-10-18T01:57:52.323Z,0
2016-10-18T01:58:53.725Z,0
2016-10-18T01:59:51.799Z,0
2016-10-18T02:00:52.125Z,0
2016-10-18T02:01:51.528Z,0
2016-10-18T02:02:51.935Z,0
2016-10-18T02:03:52.117Z,0
2016-10-18T02:04:52.704Z,0
2016-10-18T02:05:51.800Z,0
2016-10-18T02:06:53.829Z,0
2016-10-18T02:07:52.424Z,0
2016-10-18T02:08:53.367Z,0
2016-10-18T02:09:53.770Z,0
2016-10-18T02:10:51.646Z,0
2016-10-18T02:11:51.769Z,0
2016-10-18T02:12:51.717Z,0
2016-10-18T02:13:51.381Z,0
2016-10-18T02:14:53.803Z,0
2016-10-18T02:15:52.004Z,0
2016-10-18T02:16:53.614Z,0
2016-10-18T02:17:53.041Z,0
2016-10-18T02:18:52.783Z,0
2016-10-18T02:19:52.572Z,0
2016-10-18T02:20:51.153Z,0
2016-10-18T02:21:51.528Z,0
2016-10-18T02:22:51.707Z,0
2016-10-18T02:23:54.268Z,0
2016-10-18T02:24:51.318Z,0
2016-10-18T02:25:53.016Z,0
2016-10-18T02:26:53.265Z,0
2016-10-18T02:27:51.818Z,0
2016-10-18T02:28:52.070Z,0
2016-10-18T02:29:53.632Z,0
2016-10-18T02:30:53.546Z,0
2016-10-18T02:31:52.514Z,0
2016-10-18T02:32:53.249Z,0
2016-10-18T02:33:52.341Z,0
2016-10-18T02:34:51.980Z,0
2016-10-18T02:35:51.751Z,0
2016-10-18T02:36:54.118Z,0
2016-10-18T02:37:53.295Z,0
2016-10-18T02:38:53.612Z,0
2016-10-18T02:39:54.460Z,0
2016-10-18T02:40:52.601Z,0
2016-10-18T02:41:52.495Z,0
2016-10-18T02:42:53.117Z,0
2016-10-18T02:43:52.001Z,0
2016-10-18T02:44:54.121Z,0
2016-10-18T02:45:53.521Z,0
2016-10-18T02:46:51.968Z,0
2016-10-18T02:47:55.152Z,0
2016-10-18T02:48:54.312Z,0
2016-10-18T02:49:53.258Z,0
2016-10-18T02:50:52.937Z,0
2016-10-18T02:51:51.536Z,0
2016-10-18T02:52:53.176Z,0
2016-10-18T02:53:53.421Z,0
2016-10-18T02:54:53.711Z,0
2016-10-18T02:55:53.944Z,0
2016-10-18T02:56:52.796Z,0
2016-10-18T02:57:54.134Z,0
2016-10-18T02:58:55.180Z,0
2016-10-18T02:59:53.930Z,0
2016-10-18T03:00:54.032Z,0
2016-10-18T03:01:53.419Z,0
2016-10-18T03:02:53.331Z,0
2016-10-18T03:03:52.920Z,0
2016-10-18T03:04:54.196Z,0
2016-10-18T03:05:54.579Z,0
2016-10-18T03:06:55.095Z,0
2016-10-18T03:07:54.163Z,0
2016-10-18T03:08:53.251Z,0
2016-10-18T03:09:53.832Z,0
2016-10-18T03:10:54.498Z,0
2016-10-18T03:11:53.325Z,0
2016-10-18T03:12:53.982Z,0
2016-10-18T03:13:55.345Z,0
2016-10-18T03:14:52.776Z,0
2016-10-18T03:15:54.391Z,0
2016-10-18T03:16:55.501Z,0
2016-10-18T03:17:54.838Z,0
2016-10-18T03:18:53.746Z,0
2016-10-18T03:19:54.528Z,0
2016-10-18T03:20:53.317Z,0
2016-10-18T03:21:56.018Z,0
2016-10-18T03:22:54.396Z,0
2016-10-18T03:23:54.078Z,0
2016-10-18T03:24:53.179Z,0
2016-10-18T03:25:51.836Z,0
2016-10-18T03:26:53.946Z,0
2016-10-18T03:27:52.774Z,0
2016-10-18T03:28:53.191Z,0
2016-10-18T03:29:52.606Z,0
2016-10-18T03:30:53.628Z,0
2016-10-18T03:31:55.654Z,0
2016-10-18T03:32:53.468Z,0
2016-10-18T03:33:53.149Z,0
2016-10-18T03:34:54.052Z,0
2016-10-18T03:35:53.383Z,0
2016-10-18T03:36:55.528Z,0
2016-10-18T03:37:53.655Z,0
2016-10-18T03:38:53.528Z,0
2016-10-18T03:39:53.030Z,0
2016-10-18T03:40:54.417Z,0
2016-10-18T03:41:53.461Z,0
2016-10-18T03:42:53.704Z,0
2016-10-18T03:43:53.052Z,0
2016-10-18T03:44:52.897Z,0
2016-10-18T03:45:53.407Z,0
2016-10-18T03:46:54.312Z,0
2016-10-18T03:47:55.378Z,0
2016-10-18T03:48:54.215Z,0
2016-10-18T03:49:55.353Z,0
2016-10-18T03:50:54.462Z,0
2016-10-18T03:51:55.211Z,0
2016-10-18T03:52:55.386Z,0
2016-10-18T03:53:54.520Z,0
2016-10-18T03:54:54.481Z,0
2016-10-18T03:55:55.825Z,0
2016-10-18T03:56:53.922Z,0
2016-10-18T03:57:54.904Z,0
2016-10-18T03:58:53.599Z,0
2016-10-18T03:59:55.529Z,0
2016-10-18T04:00:54.193Z,0
2016-10-18T04:01:54.438Z,0
2016-10-18T04:02:54.202Z,0
2016-10-18T04:03:54.257Z,0
2016-10-18T04:04:54.006Z,0
2016-10-18T04:05:55.935Z,0
2016-10-18T04:06:54.334Z,0
2016-10-18T04:07:54.100Z,0
2016-10-18T04:08:54.896Z,0
2016-10-18T04:09:55.515Z,0
2016-10-18T04:10:54.272Z,0
2016-10-18T04:11:53.110Z,0
2016-10-18T04:12:53.193Z,0
2016-10-18T04:13:55.677Z,0
2016-10-18T04:14:56.028Z,0
2016-10-18T04:15:56.311Z,0
2016-10-18T04:16:56.091Z,0
2016-10-18T04:17:56.010Z,0
2016-10-18T04:18:54.556Z,0
2016-10-18T04:19:55.669Z,0
2016-10-18T04:20:53.869Z,0
2016-10-18T04:21:54.875Z,0
2016-10-18T04:22:55.470Z,0
2016-10-18T04:23:55.350Z,0
2016-10-18T04:24:54.032Z,0
2016-10-18T04:25:55.181Z,0
2016-10-18T04:26:54.198Z,0
2016-10-18T04:27:56.094Z,0
2016-10-18T04:28:57.101Z,0
2016-10-18T04:29:55.976Z,0
2016-10-18T04:30:56.359Z,0
2016-10-18T04:31:54.975Z,0
2016-10-18T04:32:56.816Z,0
2016-10-18T04:33:55.397Z,0
2016-10-18T04:34:55.723Z,0
2016-10-18T04:35:55.259Z,0
2016-10-18T04:36:56.062Z,0
2016-10-18T04:37:54.273Z,0
2016-10-18T04:38:55.811Z,0
2016-10-18T04:39:55.624Z,0
2016-10-18T04:40:56.446Z,0
2016-10-18T04:41:56.200Z,0
2016-10-18T04:42:54.326Z,0
2016-10-18T04:43:56.400Z,0
2016-10-18T04:44:56.041Z,0
2016-10-18T04:45:55.352Z,0
2016-10-18T04:46:55.218Z,0
2016-10-18T04:47:55.357Z,0
2016-10-18T04:48:55.766Z,0
2016-10-18T04:49:55.859Z,0
2016-10-18T04:50:55.872Z,0
2016-10-18T04:51:56.521Z,0
2016-10-18T04:52:56.037Z,0
2016-10-18T04:53:55.442Z,0
2016-10-18T04:54:56.095Z,0
2016-10-18T04:55:56.660Z,0
2016-10-18T04:56:56.892Z,0
2016-10-18T04:57:56.247Z,0
2016-10-18T04:58:57.813Z,0
2016-10-18T04:59:56.768Z,0
2016-10-18T05:00:55.832Z,0
2016-10-18T05:01:56.810Z,0
2016-10-18T05:02:57.216Z,0
2016-10-18T05:03:56.630Z,0
2016-10-18T05:04:54.645Z,0
2016-10-18T05:05:56.166Z,0
2016-10-18T05:06:56.847Z,0
2016-10-18T05:07:55.598Z,0
2016-10-18T05:08:56.552Z,0
2016-10-18T05:09:56.326Z,0
2016-10-18T05:10:55.611Z,0
2016-10-18T05:11:57.609Z,0
2016-10-18T05:12:55.329Z,0
2016-10-18T05:14:00.316Z,0
2016-10-18T05:14:55.877Z,0
2016-10-18T05:15:56.192Z,0
2016-10-18T05:16:56.466Z,0
2016-10-18T05:17:58.894Z,0
2016-10-18T05:18:56.418Z,0
2016-10-18T05:19:55.266Z,0
2016-10-18T05:20:55.240Z,0
2016-10-18T05:21:58.343Z,0
2016-10-18T05:22:55.307Z,0
2016-10-18T05:23:58.197Z,0
2016-10-18T05:24:55.509Z,0
2016-10-18T05:25:57.184Z,0
2016-10-18T05:26:56.088Z,0
2016-10-18T05:27:56.490Z,0
2016-10-18T05:28:56.529Z,0
2016-10-18T05:29:57.057Z,0
2016-10-18T05:30:58.015Z,0
2016-10-18T05:31:56.549Z,0
2016-10-18T05:32:58.113Z,0
2016-10-18T05:33:56.633Z,0
2016-10-18T05:34:58.433Z,0
2016-10-18T05:35:55.088Z,0
2016-10-18T05:36:55.519Z,0
2016-10-18T05:37:55.829Z,0
2016-10-18T05:38:55.590Z,0
2016-10-18T05:39:55.406Z,0
2016-10-18T05:40:56.907Z,0
2016-10-18T05:41:56.553Z,0
2016-10-18T05:42:56.049Z,0
2016-10-18T05:43:55.654Z,0
2016-10-18T05:44:56.551Z,0
2016-10-18T05:45:56.721Z,0
2016-10-18T05:46:55.915Z,5
2016-10-18T05:47:55.765Z,5
2016-10-18T05:48:55.345Z,5
2016-10-18T05:49:56.302Z,5
2016-10-18T05:50:56.476Z,5
2016-10-18T05:51:56.779Z,5
2016-10-18T05:52:56.457Z,5
2016-10-18T05:53:56.585Z,10
2016-10-18T05:54:56.403Z,10
2016-10-18T05:55:56.267Z,10
2016-10-18T05:56:56.341Z,10
2016-10-18T05:57:55.987Z,15
2016-10-18T05:58:56.496Z,15
2016-10-18T05:59:55.633Z,15
2016-10-18T06:00:57.959Z,15
2016-10-18T06:01:56.148Z,15
2016-10-18T06:02:56.842Z,15
2016-10-18T06:03:56.196Z,20
2016-10-18T06:04:56.595Z,20
2016-10-18T06:05:56.453Z,25
2016-10-18T06:06:56.755Z,25
2016-10-18T06:07:58.099Z,30
2016-10-18T06:08:56.054Z,30
2016-10-18T06:09:55.811Z,30
2016-10-18T06:10:57.099Z,35
2016-10-18T06:11:57.592Z,35
2016-10-18T06:12:56.395Z,35
2016-10-18T06:13:56.694Z,35
2016-10-18T06:14:56.402Z,35
2016-10-18T06:15:56.757Z,35
2016-10-18T06:16:57.435Z,35
2016-10-18T06:17:57.697Z,40
2016-10-18T06:18:58.492Z,50
2016-10-18T06:19:56.613Z,60
2016-10-18T06:20:56.819Z,60
2016-10-18T06:21:55.854Z,60
2016-10-18T06:22:56.401Z,55
2016-10-18T06:23:57.990Z,50
2016-10-18T06:24:57.011Z,55
2016-10-18T06:25:57.858Z,55
2016-10-18T06:26:55.659Z,60
2016-10-18T06:27:56.952Z,65
2016-10-18T06:28:57.416Z,65
2016-10-18T06:29:58.297Z,65
2016-10-18T06:30:59.580Z,70
2016-10-18T06:31:55.385Z,75
2016-10-18T06:32:56.061Z,75
2016-10-18T06:33:57.834Z,80
2016-10-18T06:34:57.386Z,75
2016-10-18T06:35:56.049Z,70
2016-10-18T06:36:56.901Z,70
2016-10-18T06:37:58.024Z,70
2016-10-18T06:38:56.923Z,75
2016-10-18T06:39:57.514Z,85
2016-10-18T06:40:58.939Z,85
2016-10-18T06:41:58.599Z,95
2016-10-18T06:42:56.278Z,105
2016-10-18T06:43:57.278Z,115
2016-10-18T06:44:56.728Z,125
2016-10-18T06:45:57.863Z,130
2016-10-18T06:46:55.145Z,140
2016-10-18T06:47:56.574Z,150
2016-10-18T06:48:55.858Z,165
2016-10-18T06:49:56.915Z,185
2016-10-18T06:50:57.378Z,195
2016-10-18T06:51:59.265Z,205
2016-10-18T06:52:56.301Z,220
2016-10-18T06:53:57.827Z,225
2016-10-18T06:54:56.858Z,255
2016-10-18T06:55:58.570Z,280
2016-10-18T06:56:56.505Z,250
2016-10-18T06:57:57.134Z,205
2016-10-18T06:58:59.575Z,160
2016-10-18T06:59:57.225Z,155
2016-10-18T07:00:58.164Z,170
2016-10-18T07:01:58.144Z,175
2016-10-18T07:02:56.757Z,175
2016-10-18T07:03:57.234Z,165
2016-10-18T07:04:58.467Z,160
2016-10-18T07:05:57.828Z,155
2016-10-18T07:06:58.275Z,145
2016-10-18T07:07:57.594Z,155
2016-10-18T07:08:57.264Z,165
2016-10-18T07:09:59.104Z,160
2016-10-18T07:10:59.257Z,165
2016-10-18T07:11:57.399Z,165
2016-10-18T07:12:58.097Z,165
2016-10-18T07:13:58.628Z,175
2016-10-18T07:14:57.239Z,190
2016-10-18T07:15:57.432Z,220
2016-10-18T07:16:56.191Z,230
2016-10-18T07:17:57.928Z,245
2016-10-18T07:18:58.053Z,240
2016-10-18T07:19:58.055Z,220
2016-10-18T07:20:58.391Z,210
2016-10-18T07:21:58.117Z,215
2016-10-18T07:22:57.627Z,200
2016-10-18T07:23:56.557Z,170
2016-10-18T07:24:59.124Z,170
2016-10-18T07:25:58.068Z,170
2016-10-18T07:26:56.563Z,170
2016-10-18T07:27:58.126Z,175
2016-10-18T07:28:58.103Z,170
2016-10-18T07:29:58.148Z,150
2016-10-18T07:30:58.247Z,145
2016-10-18T07:31:59.182Z,155
2016-10-18T07:32:57.253Z,165
2016-10-18T07:33:57.003Z,185
2016-10-18T07:34:56.971Z,185
2016-10-18T07:35:56.963Z,195
2016-10-18T07:36:58.456Z,225
2016-10-18T07:37:58.007Z,215
2016-10-18T07:38:57.908Z,215
2016-10-18T07:39:58.147Z,220
2016-10-18T07:40:57.736Z,220
2016-10-18T07:41:58.738Z,215
2016-10-18T07:42:57.461Z,215
2016-10-18T07:43:59.045Z,205
2016-10-18T07:44:57.133Z,205
2016-10-18T07:45:58.808Z,210
2016-10-18T07:46:58.388Z,210
2016-10-18T07:47:57.733Z,220
2016-10-18T07:48:58.095Z,225
2016-10-18T07:49:57.889Z,240
2016-10-18T07:50:57.868Z,220
2016-10-18T07:51:58.879Z,225
2016-10-18T07:52:58.779Z,205
2016-10-18T07:53:58.421Z,205
2016-10-18T07:54:58.502Z,225
2016-10-18T07:55:59.593Z,265
2016-10-18T07:56:58.212Z,305
2016-10-18T07:57:59.066Z,295
2016-10-18T07:58:59.341Z,285
2016-10-18T08:00:00.068Z,305
2016-10-18T08:00:58.212Z,330
2016-10-18T08:01:58.530Z,350
2016-10-18T08:02:58.603Z,330
2016-10-18T08:03:57.895Z,320
2016-10-18T08:04:59.704Z,310
2016-10-18T08:05:58.466Z,315
2016-10-18T08:06:59.191Z,280
2016-10-18T08:07:59.395Z,260
2016-10-18T08:08:58.838Z,240
2016-10-18T08:09:59.131Z,250
2016-10-18T08:10:59.058Z,260
2016-10-18T08:11:58.951Z,320
2016-10-18T08:12:58.541Z,330
2016-10-18T08:13:59.250Z,325
2016-10-18T08:14:59.729Z,305
2016-10-18T08:16:00.902Z,340
2016-10-18T08:16:59.959Z,360
2016-10-18T08:17:59.299Z,395
2016-10-18T08:18:59.576Z,340
2016-10-18T08:19:59.158Z,305
2016-10-18T08:20:58.460Z,295
2016-10-18T08:22:00.338Z,275
2016-10-18T08:22:59.800Z,275
2016-10-18T08:23:59.083Z,275
2016-10-18T08:24:58.510Z,295
2016-10-18T08:26:01.016Z,280
2016-10-18T08:26:58.385Z,255
2016-10-18T08:27:58.060Z,275
2016-10-18T08:28:58.188Z,360
2016-10-18T08:29:58.313Z,405
2016-10-18T08:30:59.151Z,405
2016-10-18T08:31:59.773Z,385
2016-10-18T08:32:58.761Z,330
2016-10-18T08:34:00.337Z,310
2016-10-18T08:34:58.936Z,270
2016-10-18T08:35:58.606Z,245
2016-10-18T08:36:59.382Z,285
2016-10-18T08:38:00.679Z,320
2016-10-18T08:38:59.698Z,335
2016-10-18T08:39:58.840Z,370
2016-10-18T08:41:00.248Z,435
2016-10-18T08:41:58.585Z,455
2016-10-18T08:42:59.186Z,430
2016-10-18T08:43:59.263Z,395
2016-10-18T08:44:58.932Z,365
2016-10-18T08:45:58.763Z,360
2016-10-18T08:46:59.030Z,350
2016-10-18T08:47:59.020Z,345
2016-10-18T08:48:58.818Z,355
2016-10-18T08:49:58.908Z,375
2016-10-18T08:50:58.700Z,410
2016-10-18T08:51:58.925Z,430
2016-10-18T08:52:59.152Z,435
2016-10-18T08:53:59.386Z,450
2016-10-18T08:54:59.100Z,475
2016-10-18T08:55:59.374Z,475
2016-10-18T08:57:00.623Z,475
2016-10-18T08:57:59.155Z,480
2016-10-18T08:58:59.686Z,480
2016-10-18T08:59:59.366Z,450
2016-10-18T09:00:59.982Z,415
2016-10-18T09:01:59.481Z,395
2016-10-18T09:02:59.770Z,395
2016-10-18T09:03:59.270Z,415
2016-10-18T09:04:59.234Z,425
2016-10-18T09:06:00.217Z,430
2016-10-18T09:07:00.441Z,435
2016-10-18T09:07:59.364Z,460
2016-10-18T09:08:58.815Z,515
2016-10-18T09:10:00.372Z,580
2016-10-18T09:10:58.827Z,620
2016-10-18T09:11:59.597Z,655
2016-10-18T09:12:59.404Z,650
2016-10-18T09:14:00.501Z,600
2016-10-18T09:15:00.446Z,555
2016-10-18T09:15:59.520Z,550
2016-10-18T09:16:58.924Z,580
2016-10-18T09:17:59.439Z,605
2016-10-18T09:19:00.722Z,620
2016-10-18T09:20:00.407Z,620
2016-10-18T09:21:00.063Z,625
2016-10-18T09:22:00.098Z,625
2016-10-18T09:23:00.862Z,615
2016-10-18T09:23:59.426Z,595
2016-10-18T09:25:00.755Z,560
2016-10-18T09:26:00.847Z,530
2016-10-18T09:26:59.320Z,545
2016-10-18T09:28:01.313Z,600
2016-10-18T09:29:01.813Z,625
2016-10-18T09:30:01.313Z,630
2016-10-18T09:31:01.156Z,625
2016-10-18T09:31:59.712Z,625
2016-10-18T09:33:01.845Z,645
2016-10-18T09:34:00.498Z,665
2016-10-18T09:35:01.427Z,695
2016-10-18T09:36:00.161Z,720
2016-10-18T09:37:01.261Z,760
2016-10-18T09:38:01.618Z,790
2016-10-18T09:39:01.188Z,795
2016-10-18T09:40:01.275Z,770
2016-10-18T09:41:01.219Z,730
2016-10-18T09:42:02.201Z,695
2016-10-18T09:42:59.720Z,675
2016-10-18T09:43:59.622Z,685
2016-10-18T09:44:59.484Z,715
2016-10-18T09:46:00.452Z,745
2016-10-18T09:47:00.811Z,795
2016-10-18T09:48:00.605Z,850
2016-10-18T09:49:03.528Z,875
2016-10-18T09:50:01.615Z,850
2016-10-18T09:51:00.695Z,825
2016-10-18T09:52:00.228Z,780
2016-10-18T09:53:00.535Z,725
2016-10-18T09:54:00.652Z,705
2016-10-18T09:55:00.559Z,645
2016-10-18T09:56:00.795Z,625
2016-10-18T09:57:01.507Z,615
2016-10-18T09:58:01.997Z,640
2016-10-18T09:59:00.549Z,670
2016-10-18T09:59:59.463Z,690
2016-10-18T10:01:02.095Z,700
2016-10-18T10:02:01.443Z,705
2016-10-18T10:03:00.627Z,680
2016-10-18T10:04:00.651Z,640
2016-10-18T10:05:00.921Z,595
2016-10-18T10:06:01.213Z,565
2016-10-18T10:07:01.939Z,525
2016-10-18T10:08:00.811Z,510
2016-10-18T10:09:01.192Z,475
2016-10-18T10:10:01.072Z,485
2016-10-18T10:11:01.736Z,525
2016-10-18T10:12:01.164Z,505
2016-10-18T10:13:02.043Z,525
2016-10-18T10:14:01.644Z,525
2016-10-18T10:15:01.313Z,520
2016-10-18T10:16:01.736Z,460
2016-10-18T10:17:01.152Z,490
2016-10-18T10:18:02.296Z,515
2016-10-18T10:19:02.297Z,525
2016-10-18T10:20:00.803Z,530
2016-10-18T10:21:00.806Z,525
2016-10-18T10:22:01.925Z,500
2016-10-18T10:23:01.083Z,465
2016-10-18T10:24:02.000Z,450
2016-10-18T10:25:01.132Z,515
2016-10-18T10:26:01.342Z,470
2016-10-18T10:27:01.108Z,465
2016-10-18T10:28:02.465Z,500
2016-10-18T10:29:01.204Z,535
2016-10-18T10:30:01.315Z,495
2016-10-18T10:31:00.487Z,510
2016-10-18T10:32:01.195Z,555
2016-10-18T10:33:01.311Z,625
2016-10-18T10:34:01.081Z,665
2016-10-18T10:35:02.093Z,700
2016-10-18T10:36:00.899Z,725
2016-10-18T10:37:01.878Z,750
2016-10-18T10:38:02.371Z,755
2016-10-18T10:39:01.141Z,745
2016-10-18T10:40:02.776Z,725
2016-10-18T10:41:02.962Z,685
2016-10-18T10:42:00.780Z,660
2016-10-18T10:43:03.010Z,660
2016-10-18T10:44:01.417Z,625
2016-10-18T10:45:03.810Z,725
2016-10-18T10:46:01.290Z,685
2016-10-18T10:47:04.471Z,595
2016-10-18T10:48:01.557Z,600
2016-10-18T10:49:04.387Z,485
2016-10-18T10:50:02.515Z,450
2016-10-18T10:51:02.891Z,540
2016-10-18T10:52:01.486Z,470
2016-10-18T10:53:02.589Z,485
2016-10-18T10:54:03.906Z,500
2016-10-18T10:55:03.118Z,480
2016-10-18T10:56:01.674Z,480
2016-10-18T10:57:01.824Z,490
2016-10-18T10:58:01.686Z,485
2016-10-18T10:59:01.947Z,460
2016-10-18T11:00:02.788Z,445
2016-10-18T11:01:03.031Z,475
2016-10-18T11:02:01.487Z,470
2016-10-18T11:03:02.428Z,465
2016-10-18T11:04:01.722Z,500
2016-10-18T11:05:04.205Z,540
2016-10-18T11:06:03.842Z,550
2016-10-18T11:07:02.115Z,585
2016-10-18T11:08:02.255Z,625
2016-10-18T11:09:01.265Z,680
2016-10-18T11:10:01.868Z,655
2016-10-18T11:11:03.186Z,605
2016-10-18T11:12:04.055Z,655
2016-10-18T11:13:02.720Z,745
2016-10-18T11:14:02.827Z,750
2016-10-18T11:15:02.245Z,705
2016-10-18T11:16:03.864Z,770
2016-10-18T11:17:03.133Z,860
2016-10-18T11:18:02.722Z,930
2016-10-18T11:19:02.664Z,1040
2016-10-18T11:20:03.291Z,1055
2016-10-18T11:21:03.074Z,965
2016-10-18T11:22:01.776Z,880
2016-10-18T11:23:01.301Z,845
2016-10-18T11:24:03.318Z,925
2016-10-18T11:25:03.797Z,900
2016-10-18T11:26:02.728Z,780
2016-10-18T11:27:02.551Z,710
2016-10-18T11:28:04.685Z,680
2016-10-18T11:29:01.727Z,690
2016-10-18T11:30:02.969Z,685
2016-10-18T11:31:02.080Z,720
2016-10-18T11:32:01.428Z,795
2016-10-18T11:33:02.692Z,860
2016-10-18T11:34:02.803Z,850
2016-10-18T11:35:03.540Z,740
2016-10-18T11:36:03.636Z,695
2016-10-18T11:37:01.569Z,630
2016-10-18T11:38:03.482Z,625
2016-10-18T11:39:01.913Z,635
2016-10-18T11:40:02.725Z,650
2016-10-18T11:41:05.216Z,630
2016-10-18T11:42:02.954Z,585
2016-10-18T11:43:02.922Z,540
2016-10-18T11:44:02.379Z,505
2016-10-18T11:45:02.718Z,485
2016-10-18T11:46:02.750Z,495
2016-10-18T11:47:01.946Z,505
2016-10-18T11:48:03.439Z,475
2016-10-18T11:49:02.704Z,480
2016-10-18T11:50:02.391Z,545
2016-10-18T11:51:02.004Z,630
2016-10-18T11:52:02.107Z,635
2016-10-18T11:53:02.788Z,615
2016-10-18T11:54:02.398Z,590
2016-10-18T11:55:02.957Z,520
2016-10-18T11:56:03.151Z,615
2016-10-18T11:57:03.556Z,640
2016-10-18T11:58:04.137Z,710
2016-10-18T11:59:05.156Z,740
2016-10-18T12:00:02.400Z,790
2016-10-18T12:01:02.811Z,750
2016-10-18T12:02:02.413Z,700
2016-10-18T12:03:03.320Z,665
2016-10-18T12:04:02.760Z,635
2016-10-18T12:05:03.361Z,620
2016-10-18T12:06:03.084Z,610
2016-10-18T12:07:03.780Z,680
2016-10-18T12:08:03.697Z,675
2016-10-18T12:09:03.540Z,635
2016-10-18T12:10:04.637Z,650
2016-10-18T12:11:02.996Z,735
2016-10-18T12:12:02.993Z,725
2016-10-18T12:13:02.658Z,745
2016-10-18T12:14:03.646Z,750
2016-10-18T12:15:02.250Z,770
2016-10-18T12:16:03.359Z,810
2016-10-18T12:17:03.184Z,835
2016-10-18T12:18:03.130Z,850
2016-10-18T12:19:04.564Z,735
2016-10-18T12:20:03.622Z,675
2016-10-18T12:21:03.067Z,615
2016-10-18T12:22:04.512Z,615
2016-10-18T12:23:03.063Z,605
2016-10-18T12:24:03.897Z,665
2016-10-18T12:25:02.610Z,805
2016-10-18T12:26:03.077Z,790
2016-10-18T12:27:04.149Z,650
2016-10-18T12:28:04.019Z,550
2016-10-18T12:29:03.097Z,505
2016-10-18T12:30:04.253Z,490
2016-10-18T12:31:03.002Z,495
2016-10-18T12:32:04.168Z,520
2016-10-18T12:33:03.440Z,580
2016-10-18T12:34:03.080Z,675
2016-10-18T12:35:04.750Z,675
2016-10-18T12:36:04.197Z,745
2016-10-18T12:37:04.702Z,675
2016-10-18T12:38:04.035Z,670
2016-10-18T12:39:05.287Z,660
2016-10-18T12:40:05.843Z,600
2016-10-18T12:41:04.212Z,535
2016-10-18T12:42:05.391Z,490
2016-10-18T12:43:03.739Z,455
2016-10-18T12:44:03.980Z,450
2016-10-18T12:45:03.713Z,450
2016-10-18T12:46:05.840Z,415
2016-10-18T12:47:04.661Z,365
2016-10-18T12:48:03.577Z,315
2016-10-18T12:49:04.060Z,280
2016-10-18T12:50:06.174Z,275
2016-10-18T12:51:03.632Z,360
2016-10-18T12:52:04.903Z,490
2016-10-18T12:53:03.451Z,690
2016-10-18T12:54:04.075Z,805
2016-10-18T12:55:04.628Z,735
2016-10-18T12:56:06.540Z,660
2016-10-18T12:57:05.340Z,615
2016-10-18T12:58:04.108Z,620
2016-10-18T12:59:04.178Z,565
2016-10-18T13:00:04.227Z,585
2016-10-18T13:01:04.132Z,655
2016-10-18T13:02:04.298Z,655
2016-10-18T13:03:03.814Z,650
2016-10-18T13:04:04.393Z,630
2016-10-18T13:05:03.446Z,605
2016-10-18T13:06:04.849Z,570
2016-10-18T13:07:06.828Z,535
2016-10-18T13:08:04.421Z,525
2016-10-18T13:09:04.592Z,525
2016-10-18T13:10:05.369Z,525
2016-10-18T13:11:04.319Z,525
2016-10-18T13:12:04.476Z,525
2016-10-18T13:13:04.437Z,525
2016-10-18T13:14:05.674Z,525
2016-10-18T13:15:05.865Z,530
2016-10-18T13:16:05.277Z,535
2016-10-18T13:17:04.922Z,535
2016-10-18T13:18:05.323Z,535
2016-10-18T13:19:04.890Z,525
2016-10-18T13:20:05.675Z,510
2016-10-18T13:21:06.041Z,495
2016-10-18T13:22:04.785Z,485
2016-10-18T13:23:04.840Z,470
2016-10-18T13:24:05.799Z,455
2016-10-18T13:25:05.559Z,445
2016-10-18T13:26:06.789Z,435
2016-10-18T13:27:05.520Z,430
2016-10-18T13:28:04.279Z,425
2016-10-18T13:29:06.177Z,425
2016-10-18T13:30:05.751Z,430
2016-10-18T13:31:05.766Z,440
2016-10-18T13:32:04.795Z,455
2016-10-18T13:33:05.868Z,475
2016-10-18T13:34:06.057Z,480
2016-10-18T13:35:04.896Z,490
2016-10-18T13:36:06.638Z,500
2016-10-18T13:37:05.667Z,515
2016-10-18T13:38:05.406Z,560
2016-10-18T13:39:05.959Z,585
2016-10-18T13:40:06.099Z,630
2016-10-18T13:41:05.677Z,645
2016-10-18T13:42:06.154Z,680
2016-10-18T13:43:05.856Z,700
2016-10-18T13:44:06.910Z,715
2016-10-18T13:45:05.508Z,715
2016-10-18T13:46:06.327Z,715
2016-10-18T13:47:06.362Z,705
2016-10-18T13:48:06.571Z,690
2016-10-18T13:49:05.841Z,675
2016-10-18T13:50:05.869Z,655
2016-10-18T13:51:06.456Z,645
2016-10-18T13:52:06.484Z,620
2016-10-18T13:53:05.428Z,595
2016-10-18T13:54:06.581Z,575
2016-10-18T13:55:07.117Z,550
2016-10-18T13:56:05.488Z,535
2016-10-18T13:57:06.416Z,515
2016-10-18T13:58:07.180Z,500
2016-10-18T13:59:07.056Z,490
2016-10-18T14:00:05.246Z,485
2016-10-18T14:01:06.492Z,485
2016-10-18T14:02:06.403Z,490
2016-10-18T14:03:05.940Z,500
2016-10-18T14:04:06.913Z,505
2016-10-18T14:05:06.290Z,510
2016-10-18T14:06:07.686Z,515
2016-10-18T14:07:07.400Z,515
2016-10-18T14:08:06.201Z,515
2016-10-18T14:09:06.956Z,515
2016-10-18T14:10:06.373Z,505
2016-10-18T14:11:06.432Z,495
2016-10-18T14:12:05.830Z,490
2016-10-18T14:13:05.133Z,480